createdAt,value
2017-06-10T00:01:40.411Z,15.50
2017-06-10T00:04:08.673Z,15.60
2017-06-10T00:06:37.020Z,15.60
2017-06-10T00:09:06.118Z,15.70
2017-06-10T00:11:34.478Z,15.70
2017-06-10T00:14:02.866Z,15.70
2017-06-10T00:16:31.239Z,15.70
2017-06-10T00:18:59.605Z,15.70
2017-06-10T00:21:27.906Z,15.70
2017-06-10T00:23:56.176Z,15.80
2017-06-10T00:26:24.548Z,15.80
2017-06-10T00:28:52.843Z,15.80
2017-06-10T00:31:21.155Z,15.60
2017-06-10T00:33:49.482Z,15.60
2017-06-10T00:36:17.759Z,15.70
2017-06-10T00:38:46.117Z,15.60
2017-06-10T00:41:14.388Z,15.60
2017-06-10T00:43:42.796Z,15.50
2017-06-10T00:46:11.184Z,15.40
2017-06-10T00:48:39.551Z,15.40
2017-06-10T00:51:07.934Z,15.40
2017-06-10T00:53:36.964Z,15.40
2017-06-10T00:56:05.272Z,15.40
2017-06-10T00:58:33.616Z,15.40
2017-06-10T01:01:01.876Z,15.40
2017-06-10T01:03:30.165Z,15.40
2017-06-10T01:05:58.417Z,15.40
2017-06-10T01:08:26.714Z,15.40
2017-06-10T01:10:54.972Z,15.40
2017-06-10T01:13:23.290Z,15.40
2017-06-10T01:15:52.341Z,15.40
2017-06-10T01:18:20.611Z,15.40
2017-06-10T01:20:48.900Z,15.50
2017-06-10T01:23:17.212Z,15.50
2017-06-10T01:25:46.305Z,15.50
2017-06-10T01:28:14.693Z,15.50
2017-06-10T01:30:43.777Z,15.60
2017-06-10T01:33:12.154Z,15.60
2017-06-10T01:35:40.426Z,15.60
2017-06-10T01:38:08.820Z,15.60
2017-06-10T01:40:37.150Z,15.70
2017-06-10T01:43:05.425Z,15.70
2017-06-10T01:45:33.715Z,15.70
2017-06-10T01:48:01.993Z,15.70
2017-06-10T01:50:30.288Z,15.70
2017-06-10T01:52:59.340Z,15.50
2017-06-10T01:55:27.737Z,15.50
2017-06-10T01:57:56.113Z,15.60
2017-06-10T02:00:24.421Z,15.70
2017-06-10T02:02:53.436Z,15.70
2017-06-10T02:05:21.752Z,15.70
2017-06-10T02:07:50.030Z,15.70
2017-06-10T02:10:19.092Z,15.70
2017-06-10T02:12:47.387Z,15.70
2017-06-10T02:15:16.448Z,15.80
2017-06-10T02:17:44.742Z,15.80
2017-06-10T02:20:13.113Z,15.80
2017-06-10T02:22:41.380Z,15.90
2017-06-10T02:25:09.765Z,15.90
2017-06-10T02:27:38.028Z,16.00
2017-06-10T02:30:06.300Z,16.00
2017-06-10T02:32:34.573Z,16.00
2017-06-10T02:35:02.881Z,16.00
2017-06-10T02:37:31.260Z,16.00
2017-06-10T02:39:59.529Z,16.00
2017-06-10T02:42:27.828Z,16.00
2017-06-10T02:44:56.086Z,15.90
2017-06-10T02:47:24.378Z,15.90
2017-06-10T02:49:52.742Z,15.90
2017-06-10T02:52:21.005Z,15.90
2017-06-10T02:54:49.407Z,15.90
2017-06-10T02:57:17.760Z,15.90
2017-06-10T02:59:46.169Z,15.90
2017-06-10T03:02:14.440Z,15.90
2017-06-10T03:04:42.716Z,15.70
2017-06-10T03:07:11.014Z,15.70
2017-06-10T03:09:40.104Z,15.60
2017-06-10T03:12:08.469Z,15.50
2017-06-10T03:14:36.745Z,15.50
2017-06-10T03:17:05.029Z,15.40
2017-06-10T03:19:33.400Z,15.30
2017-06-10T03:22:01.778Z,15.30
2017-06-10T03:24:30.035Z,15.20
2017-06-10T03:26:58.340Z,15.10
2017-06-10T03:29:26.649Z,15.00
2017-06-10T03:31:54.918Z,14.90
2017-06-10T03:34:24.016Z,14.80
2017-06-10T03:36:53.088Z,14.70
2017-06-10T03:39:21.394Z,14.70
2017-06-10T03:41:49.737Z,14.70
2017-06-10T03:44:18.029Z,14.70
2017-06-10T03:46:46.338Z,14.60
2017-06-10T03:49:14.608Z,14.60
2017-06-10T03:51:42.873Z,14.60
2017-06-10T03:54:11.930Z,14.50
2017-06-10T03:56:40.191Z,14.50
2017-06-10T03:59:08.504Z,14.50
2017-06-10T04:01:36.780Z,14.40
2017-06-10T04:04:05.034Z,14.40
2017-06-10T04:06:33.422Z,14.40
2017-06-10T04:09:01.698Z,14.30
2017-06-10T04:11:29.977Z,14.40
2017-06-10T04:13:58.237Z,14.40
2017-06-10T04:16:26.530Z,14.30
2017-06-10T04:18:54.818Z,14.30
2017-06-10T04:21:23.098Z,14.30
2017-06-10T04:23:51.465Z,14.30
2017-06-10T04:26:19.745Z,14.30
2017-06-10T04:28:48.126Z,14.30
2017-06-10T04:31:16.504Z,14.30
2017-06-10T04:33:44.789Z,14.40
2017-06-10T04:36:13.158Z,14.40
2017-06-10T04:38:41.534Z,14.40
2017-06-10T04:41:09.924Z,14.40
2017-06-10T04:43:38.213Z,14.50
2017-06-10T04:46:06.584Z,14.50
2017-06-10T04:48:34.861Z,14.50
2017-06-10T04:51:03.117Z,14.60
2017-06-10T04:53:31.406Z,14.60
2017-06-10T04:55:59.677Z,14.70
2017-06-10T04:58:27.981Z,14.70
2017-06-10T05:00:57.048Z,14.80
2017-06-10T05:03:25.304Z,14.80
2017-06-10T05:05:53.629Z,14.70
2017-06-10T05:08:22.700Z,14.90
2017-06-10T05:10:51.077Z,14.90
2017-06-10T05:13:19.358Z,14.90
2017-06-10T05:15:47.651Z,15.00
2017-06-10T05:18:15.911Z,15.10
2017-06-10T05:20:44.186Z,15.20
2017-06-10T05:23:12.667Z,15.20
2017-06-10T05:25:40.927Z,15.20
2017-06-10T05:28:09.329Z,15.40
2017-06-10T05:30:37.681Z,15.50
2017-06-10T05:33:06.186Z,15.50
2017-06-10T05:35:34.465Z,15.50
2017-06-10T05:38:02.754Z,15.60
2017-06-10T05:40:31.030Z,15.70
2017-06-10T05:42:59.390Z,15.80
2017-06-10T05:45:27.768Z,15.90
2017-06-10T05:47:56.049Z,16.00
2017-06-10T05:50:24.420Z,16.00
2017-06-10T05:52:52.688Z,16.00
2017-06-10T05:55:20.952Z,16.10
2017-06-10T05:57:49.264Z,16.10
2017-06-10T06:00:17.512Z,16.20
2017-06-10T06:02:45.784Z,16.20
2017-06-10T06:05:14.049Z,16.20
2017-06-10T06:07:42.605Z,16.30
2017-06-10T06:10:11.667Z,16.20
2017-06-10T06:12:39.957Z,16.20
2017-06-10T06:15:08.248Z,16.20
2017-06-10T06:17:37.424Z,16.20
2017-06-10T06:20:05.724Z,16.20
2017-06-10T06:22:34.804Z,16.30
2017-06-10T06:25:03.377Z,16.30
2017-06-10T06:27:31.664Z,16.40
2017-06-10T06:30:00.045Z,16.40
2017-06-10T06:32:28.356Z,16.40
2017-06-10T06:34:56.617Z,16.50
2017-06-10T06:37:24.969Z,16.60
2017-06-10T06:39:53.258Z,16.70
2017-06-10T06:42:21.625Z,16.90
2017-06-10T06:44:50.000Z,17.10
2017-06-10T06:47:18.286Z,17.10
2017-06-10T06:49:46.556Z,17.10
2017-06-10T06:52:15.036Z,17.10
2017-06-10T06:54:43.322Z,17.20
2017-06-10T06:57:11.616Z,17.30
2017-06-10T06:59:40.722Z,17.30
2017-06-10T07:02:09.885Z,17.40
2017-06-10T07:04:38.157Z,17.40
2017-06-10T07:07:06.448Z,17.70
2017-06-10T07:09:34.821Z,17.80
2017-06-10T07:12:03.085Z,17.90
2017-06-10T07:14:31.372Z,17.90
2017-06-10T07:16:59.752Z,18.10
2017-06-10T07:19:28.022Z,18.20
2017-06-10T07:21:56.276Z,18.40
2017-06-10T07:24:24.615Z,18.30
2017-06-10T07:26:53.697Z,18.50
2017-06-10T07:29:22.009Z,18.50
2017-06-10T07:31:50.342Z,18.40
2017-06-10T07:34:18.612Z,18.40
2017-06-10T07:36:46.892Z,18.30
2017-06-10T07:39:15.182Z,18.20
2017-06-10T07:41:43.541Z,18.20
2017-06-10T07:44:11.800Z,18.10
2017-06-10T07:46:40.096Z,18.00
2017-06-10T07:49:08.474Z,18.10
2017-06-10T07:51:36.753Z,18.20
2017-06-10T07:54:05.132Z,18.30
2017-06-10T07:56:33.403Z,18.30
2017-06-10T07:59:01.665Z,18.40
2017-06-10T08:01:29.956Z,18.30
2017-06-10T08:03:58.228Z,18.40
2017-06-10T08:06:26.552Z,18.60
2017-06-10T08:08:55.593Z,18.80
2017-06-10T08:11:23.888Z,18.80
2017-06-10T08:13:52.156Z,19.00
2017-06-10T08:16:20.543Z,19.40
2017-06-10T08:18:48.804Z,19.60
2017-06-10T08:21:17.093Z,19.70
2017-06-10T08:23:45.369Z,19.80
2017-06-10T08:26:13.643Z,19.60
2017-06-10T08:28:42.313Z,19.60
2017-06-10T08:31:10.658Z,19.70
2017-06-10T08:33:39.714Z,19.70
2017-06-10T08:36:07.987Z,19.70
2017-06-10T08:38:36.305Z,19.80
2017-06-10T08:41:04.602Z,19.80
2017-06-10T08:43:32.917Z,19.60
2017-06-10T08:46:01.971Z,19.90
2017-06-10T08:48:30.239Z,19.90
2017-06-10T08:50:58.517Z,20.10
2017-06-10T08:53:26.776Z,20.10
2017-06-10T08:55:55.090Z,20.00
2017-06-10T08:58:23.360Z,19.80
2017-06-10T09:00:51.624Z,19.90
2017-06-10T09:03:19.929Z,20.00
2017-06-10T09:05:48.197Z,20.30
2017-06-10T09:08:16.593Z,20.40
2017-06-10T09:10:44.957Z,20.50
2017-06-10T09:13:13.241Z,20.40
2017-06-10T09:15:41.623Z,20.50
2017-06-10T09:18:09.888Z,20.40
2017-06-10T09:20:38.278Z,20.20
2017-06-10T09:23:06.560Z,20.40
2017-06-10T09:25:34.834Z,20.60
2017-06-10T09:28:03.212Z,20.60
2017-06-10T09:30:31.482Z,20.60
2017-06-10T09:32:59.880Z,20.80
2017-06-10T09:35:28.241Z,20.90
2017-06-10T09:37:56.520Z,21.00
2017-06-10T09:40:24.796Z,21.10
2017-06-10T09:42:53.072Z,21.00
2017-06-10T09:45:21.365Z,21.00
2017-06-10T09:47:49.620Z,21.10
2017-06-10T09:50:17.904Z,21.20
2017-06-10T09:52:46.213Z,21.20
2017-06-10T09:55:14.497Z,21.40
2017-06-10T09:57:42.792Z,21.30
2017-06-10T10:00:11.874Z,20.70
2017-06-10T10:02:40.135Z,20.70
2017-06-10T10:05:08.529Z,20.70
2017-06-10T10:07:36.797Z,21.00
2017-06-10T10:10:05.199Z,21.10
2017-06-10T10:12:33.448Z,21.20
2017-06-10T10:15:01.742Z,21.20
2017-06-10T10:17:30.104Z,21.30
2017-06-10T10:19:58.393Z,21.40
2017-06-10T10:22:26.769Z,21.60
2017-06-10T10:24:55.046Z,21.90
2017-06-10T10:27:23.329Z,21.70
2017-06-10T10:29:51.676Z,21.70
2017-06-10T10:32:19.938Z,21.50
2017-06-10T10:34:48.258Z,21.30
2017-06-10T10:37:16.532Z,21.10
2017-06-10T10:39:44.929Z,21.10
2017-06-10T10:42:13.954Z,21.20
2017-06-10T10:44:42.266Z,21.20
2017-06-10T10:47:10.521Z,21.50
2017-06-10T10:49:38.916Z,21.90
2017-06-10T10:52:07.180Z,22.40
2017-06-10T10:54:35.490Z,22.60
2017-06-10T10:57:03.791Z,22.80
2017-06-10T10:59:32.061Z,22.50
2017-06-10T11:02:00.351Z,22.50
2017-06-10T11:04:28.716Z,22.10
2017-06-10T11:06:56.997Z,22.40
2017-06-10T11:09:25.374Z,22.60
2017-06-10T11:11:53.662Z,22.50
2017-06-10T11:14:21.912Z,22.40
2017-06-10T11:16:50.202Z,22.10
2017-06-10T11:19:18.496Z,22.00
2017-06-10T11:21:46.852Z,22.00
2017-06-10T11:24:15.134Z,22.20
2017-06-10T11:26:43.521Z,22.40
2017-06-10T11:29:11.774Z,22.40
2017-06-10T11:31:40.087Z,22.40
2017-06-10T11:34:08.374Z,22.70
2017-06-10T11:36:37.438Z,22.50
2017-06-10T11:39:05.835Z,22.40
2017-06-10T11:41:34.112Z,22.40
2017-06-10T11:44:02.388Z,22.00
2017-06-10T11:46:30.707Z,22.10
2017-06-10T11:48:58.972Z,22.40
2017-06-10T11:51:27.313Z,22.40
2017-06-10T11:53:55.680Z,22.70
2017-06-10T11:56:23.961Z,22.60
2017-06-10T11:58:52.272Z,22.80
2017-06-10T12:01:21.335Z,23.40
2017-06-10T12:03:49.611Z,23.40
2017-06-10T12:06:17.889Z,24.00
2017-06-10T12:08:46.168Z,24.30
2017-06-10T12:11:14.488Z,24.60
2017-06-10T12:13:42.797Z,24.20
2017-06-10T12:16:11.103Z,24.20
2017-06-10T12:18:39.484Z,23.90
2017-06-10T12:21:07.757Z,23.80
2017-06-10T12:23:36.039Z,23.60
2017-06-10T12:26:04.309Z,25.90
2017-06-10T12:28:32.686Z,28.00
2017-06-10T12:31:00.952Z,29.60
2017-06-10T12:33:29.242Z,31.30
2017-06-10T12:35:57.520Z,32.50
2017-06-10T12:38:25.820Z,33.80
2017-06-10T12:40:54.132Z,34.00
2017-06-10T12:43:22.406Z,34.70
2017-06-10T12:45:50.750Z,34.10
2017-06-10T12:48:19.032Z,32.60
2017-06-10T12:50:48.114Z,30.90
2017-06-10T12:53:16.442Z,30.80
2017-06-10T12:55:44.763Z,31.10
2017-06-10T12:58:13.033Z,31.90
2017-06-10T13:00:41.313Z,33.90
2017-06-10T13:03:09.690Z,34.00
2017-06-10T13:05:37.949Z,34.10
2017-06-10T13:08:06.246Z,34.20
2017-06-10T13:10:34.503Z,33.40
2017-06-10T13:13:02.900Z,31.20
2017-06-10T13:15:31.161Z,29.60
2017-06-10T13:17:59.427Z,28.30
2017-06-10T13:20:27.734Z,26.70
2017-06-10T13:22:56.007Z,25.70
2017-06-10T13:25:24.390Z,24.90
2017-06-10T13:27:52.652Z,24.50
2017-06-10T13:30:20.942Z,24.40
2017-06-10T13:32:49.322Z,24.00
2017-06-10T13:35:17.587Z,23.50
2017-06-10T13:37:45.949Z,23.30
2017-06-10T13:40:14.252Z,23.40
2017-06-10T13:42:42.516Z,23.30
2017-06-10T13:45:10.803Z,23.40
2017-06-10T13:47:39.073Z,23.40
2017-06-10T13:50:07.380Z,23.40
2017-06-10T13:52:35.745Z,23.60
2017-06-10T13:55:03.996Z,23.70
2017-06-10T13:57:32.395Z,24.10
2017-06-10T14:00:00.654Z,24.30
2017-06-10T14:02:28.962Z,24.20
2017-06-10T14:04:57.225Z,24.40
2017-06-10T14:07:25.496Z,25.80
2017-06-10T14:09:53.780Z,27.70
2017-06-10T14:12:22.121Z,30.80
2017-06-10T14:14:50.495Z,33.20
2017-06-10T14:17:18.749Z,32.10
2017-06-10T14:19:47.062Z,31.10
2017-06-10T14:22:15.351Z,30.00
2017-06-10T14:24:43.702Z,29.90
2017-06-10T14:27:12.083Z,29.30
2017-06-10T14:29:40.361Z,27.90
2017-06-10T14:32:08.746Z,28.10
2017-06-10T14:34:37.129Z,27.80
2017-06-10T14:37:05.398Z,27.70
2017-06-10T14:39:33.777Z,27.30
2017-06-10T14:42:02.048Z,27.00
2017-06-10T14:44:30.330Z,26.80
2017-06-10T14:46:58.765Z,26.80
2017-06-10T14:49:27.041Z,27.20
2017-06-10T14:51:55.418Z,28.00
2017-06-10T14:54:23.701Z,27.50
2017-06-10T14:56:51.972Z,26.90
2017-06-10T14:59:21.290Z,27.20
2017-06-10T15:01:49.548Z,27.40
2017-06-10T15:04:17.836Z,26.90
2017-06-10T15:06:46.116Z,27.20
2017-06-10T15:09:14.393Z,28.00
2017-06-10T15:11:42.653Z,29.60
2017-06-10T15:14:10.960Z,31.20
2017-06-10T15:16:39.992Z,33.30
2017-06-10T15:19:08.252Z,33.20
2017-06-10T15:21:36.583Z,33.10
2017-06-10T15:24:04.886Z,34.30
2017-06-10T15:26:33.236Z,33.70
2017-06-10T15:29:01.514Z,33.60
2017-06-10T15:31:29.791Z,32.30
2017-06-10T15:33:58.177Z,32.10
2017-06-10T15:36:26.445Z,33.30
2017-06-10T15:38:54.841Z,33.00
2017-06-10T15:41:23.100Z,32.50
2017-06-10T15:43:51.502Z,31.70
2017-06-10T15:46:19.760Z,31.70
2017-06-10T15:48:48.059Z,31.20
2017-06-10T15:51:16.459Z,30.50
2017-06-10T15:53:45.516Z,31.80
2017-06-10T15:56:13.892Z,31.70
2017-06-10T15:58:42.181Z,31.10
2017-06-10T16:01:10.464Z,30.70
2017-06-10T16:03:38.826Z,29.80
2017-06-10T16:06:07.152Z,29.10
2017-06-10T16:08:36.160Z,30.40
2017-06-10T16:11:04.434Z,30.40
2017-06-10T16:13:32.714Z,31.10
2017-06-10T16:16:01.893Z,32.00
2017-06-10T16:18:30.881Z,32.50
2017-06-10T16:20:59.890Z,32.40
2017-06-10T16:23:28.208Z,31.40
2017-06-10T16:25:56.569Z,30.50
2017-06-10T16:28:24.831Z,29.20
2017-06-10T16:30:53.868Z,27.90
2017-06-10T16:33:22.137Z,27.80
2017-06-10T16:35:50.992Z,27.50
2017-06-10T16:38:19.262Z,27.00
2017-06-10T16:40:47.556Z,26.50
2017-06-10T16:43:15.904Z,26.30
2017-06-10T16:45:44.889Z,25.90
2017-06-10T16:48:15.990Z,25.50
2017-06-10T16:50:44.905Z,25.20
2017-06-10T16:53:13.491Z,24.80
2017-06-10T16:55:42.617Z,24.40
2017-06-10T16:58:10.892Z,24.30
2017-06-10T17:00:39.950Z,23.70
2017-06-10T17:03:08.248Z,23.70
2017-06-10T17:05:36.524Z,23.50
2017-06-10T17:08:04.853Z,23.20
2017-06-10T17:10:33.907Z,23.20
2017-06-10T17:13:02.174Z,23.10
2017-06-10T17:15:31.303Z,23.30
2017-06-10T17:17:59.560Z,23.20
2017-06-10T17:20:27.946Z,23.20
2017-06-10T17:22:56.229Z,23.00
2017-06-10T17:25:24.491Z,22.90
2017-06-10T17:27:52.770Z,22.90
2017-06-10T17:30:21.032Z,22.60
2017-06-10T17:32:49.441Z,22.60
2017-06-10T17:35:17.710Z,22.70
2017-06-10T17:37:45.997Z,22.70
2017-06-10T17:40:14.368Z,22.70
2017-06-10T17:42:42.621Z,22.50
2017-06-10T17:45:10.932Z,22.50
2017-06-10T17:47:39.298Z,22.60
2017-06-10T17:50:07.578Z,22.60
2017-06-10T17:52:35.870Z,22.70
2017-06-10T17:55:04.233Z,22.50
2017-06-10T17:57:32.633Z,22.50
2017-06-10T18:00:00.891Z,22.50
2017-06-10T18:02:29.256Z,22.50
2017-06-10T18:04:57.519Z,22.50
2017-06-10T18:07:25.793Z,22.30
2017-06-10T18:09:54.114Z,22.30
2017-06-10T18:12:22.369Z,22.30
2017-06-10T18:14:50.757Z,22.30
2017-06-10T18:17:19.030Z,22.30
2017-06-10T18:19:47.288Z,22.40
2017-06-10T18:22:15.578Z,22.30
2017-06-10T18:24:43.829Z,22.30
2017-06-10T18:27:12.132Z,22.30
2017-06-10T18:29:40.394Z,22.20
2017-06-10T18:32:08.685Z,22.20
2017-06-10T18:34:37.061Z,22.20
2017-06-10T18:37:05.316Z,22.00
2017-06-10T18:39:33.722Z,22.00
2017-06-10T18:42:01.998Z,22.00
2017-06-10T18:44:30.283Z,22.00
2017-06-10T18:46:58.653Z,22.00
2017-06-10T18:49:26.926Z,21.90
2017-06-10T18:51:55.260Z,21.90
2017-06-10T18:54:23.583Z,21.80
2017-06-10T18:56:51.847Z,21.80
2017-06-10T18:59:20.125Z,21.80
2017-06-10T19:01:48.416Z,21.80
2017-06-10T19:04:16.800Z,21.80
2017-06-10T19:06:45.068Z,21.80
2017-06-10T19:09:13.334Z,21.70
2017-06-10T19:11:41.626Z,21.70
2017-06-10T19:14:09.904Z,21.70
2017-06-10T19:16:38.283Z,21.60
2017-06-10T19:19:06.561Z,21.60
2017-06-10T19:21:34.836Z,21.60
2017-06-10T19:24:03.132Z,21.60
2017-06-10T19:26:31.379Z,21.50
2017-06-10T19:28:59.677Z,21.50
2017-06-10T19:31:27.937Z,21.40
2017-06-10T19:33:56.222Z,21.40
2017-06-10T19:36:24.526Z,21.40
2017-06-10T19:38:53.611Z,21.30
2017-06-10T19:41:21.932Z,21.30
2017-06-10T19:43:50.213Z,21.40
2017-06-10T19:46:18.536Z,21.40
2017-06-10T19:48:46.917Z,21.40
2017-06-10T19:51:15.168Z,21.30
2017-06-10T19:53:43.576Z,21.30
2017-06-10T19:56:11.852Z,21.30
2017-06-10T19:58:40.214Z,21.30
2017-06-10T20:01:08.598Z,21.30
2017-06-10T20:03:36.874Z,21.30
2017-06-10T20:06:05.267Z,21.20
2017-06-10T20:08:33.636Z,21.20
2017-06-10T20:11:01.897Z,21.20
2017-06-10T20:13:30.190Z,21.10
2017-06-10T20:15:58.448Z,21.10
2017-06-10T20:18:26.741Z,21.10
2017-06-10T20:20:55.021Z,21.10
2017-06-10T20:23:23.397Z,21.10
2017-06-10T20:25:51.775Z,21.10
2017-06-10T20:28:20.060Z,21.10
2017-06-10T20:30:48.352Z,21.10
2017-06-10T20:33:16.672Z,21.00
2017-06-10T20:35:44.970Z,21.00
2017-06-10T20:38:13.339Z,20.90
2017-06-10T20:40:41.610Z,20.90
2017-06-10T20:43:09.895Z,20.90
2017-06-10T20:45:38.267Z,20.80
2017-06-10T20:48:06.554Z,20.80
2017-06-10T20:50:34.914Z,20.80
2017-06-10T20:53:03.188Z,20.80
2017-06-10T20:55:31.481Z,20.80
2017-06-10T20:57:59.856Z,20.80
2017-06-10T21:00:28.145Z,20.80
2017-06-10T21:02:56.454Z,20.70
2017-06-10T21:05:24.789Z,20.70
2017-06-10T21:07:53.070Z,20.70
2017-06-10T21:10:21.432Z,20.70
2017-06-10T21:12:49.738Z,20.60
2017-06-10T21:15:18.020Z,20.70
2017-06-10T21:17:47.101Z,20.60
2017-06-10T21:20:16.395Z,20.60
2017-06-10T21:22:44.672Z,20.60
2017-06-10T21:25:12.921Z,20.60
2017-06-10T21:27:41.226Z,20.60
2017-06-10T21:30:09.488Z,20.60
2017-06-10T21:32:37.885Z,20.50
2017-06-10T21:35:06.171Z,20.50
2017-06-10T21:37:34.548Z,20.50
2017-06-10T21:40:02.918Z,20.50
2017-06-10T21:42:31.202Z,20.50
2017-06-10T21:44:59.592Z,20.50
2017-06-10T21:47:27.883Z,20.50
2017-06-10T21:49:56.232Z,20.40
2017-06-10T21:52:25.249Z,20.40
2017-06-10T21:54:53.513Z,20.40
2017-06-10T21:57:21.845Z,20.40
2017-06-10T21:59:50.166Z,20.40
2017-06-10T22:02:18.427Z,20.40
2017-06-10T22:04:46.817Z,20.40
2017-06-10T22:07:15.096Z,20.40
2017-06-10T22:09:43.440Z,20.40
2017-06-10T22:12:11.731Z,20.30
2017-06-10T22:14:40.042Z,20.30
2017-06-10T22:17:08.321Z,20.30
2017-06-10T22:19:36.699Z,20.30
2017-06-10T22:22:05.775Z,20.30
2017-06-10T22:24:34.133Z,20.30
2017-06-10T22:27:02.509Z,20.30
2017-06-10T22:29:30.782Z,20.30
2017-06-10T22:31:59.042Z,20.30
2017-06-10T22:34:27.353Z,20.20
2017-06-10T22:36:55.609Z,20.20
2017-06-10T22:39:23.905Z,20.20
2017-06-10T22:41:52.192Z,20.10
2017-06-10T22:44:21.223Z,20.10
2017-06-10T22:46:49.551Z,20.00
2017-06-10T22:49:17.811Z,20.10
2017-06-10T22:51:46.090Z,20.00
2017-06-10T22:54:14.470Z,20.00
2017-06-10T22:56:42.749Z,20.00
2017-06-10T22:59:11.129Z,20.00
2017-06-10T23:01:39.409Z,20.00
2017-06-10T23:04:07.681Z,20.00
2017-06-10T23:06:36.065Z,20.00
2017-06-10T23:09:04.434Z,19.90
2017-06-10T23:11:32.755Z,19.90
2017-06-10T23:14:01.820Z,19.90
2017-06-10T23:16:30.076Z,19.90
2017-06-10T23:18:58.365Z,19.90
2017-06-10T23:21:26.642Z,19.90
2017-06-10T23:23:55.022Z,19.80
2017-06-10T23:26:23.401Z,19.80
2017-06-10T23:28:51.666Z,19.80
2017-06-10T23:31:20.066Z,19.80
2017-06-10T23:33:48.332Z,19.80
2017-06-10T23:36:16.631Z,19.70
2017-06-10T23:38:44.916Z,19.70
2017-06-10T23:41:13.192Z,19.70
2017-06-10T23:43:42.270Z,19.70
2017-06-10T23:46:10.656Z,19.70
2017-06-10T23:48:38.945Z,19.60
2017-06-10T23:51:08.024Z,19.60
2017-06-10T23:53:36.403Z,19.60
2017-06-10T23:56:04.672Z,19.60
2017-06-10T23:58:33.068Z,19.60
